Time;durP1;ratioP1;P1;durP2;ratioP2;P2;SDS_P1;SDS_P2;PMS_P1;PMS_P2;Temp;Humidity;BMP_temperature;BMP_pressure;BME280_temperature;BME280_humidity;BME280_pressure;Samples;Min_cycle;Max_cycle;Signal;HPM_P1;HPM_P2
2022/03/13 00:05:22;;;;;;;;;;;;;;;17.52;57.25;101485.31;4979909;28;19990;-85
2022/03/13 00:11:45;;;;;;;;;;;;;;;17.52;58.32;101481.84;4939623;29;19934;-84
2022/03/13 00:14:32;;;;;;;;;;;;;;;17.51;58.64;101482.69;4923453;29;19931;-84
2022/03/13 00:20:22;;;;;;;;;;;;;;;17.52;57.63;101485.31;4927721;29;19974;-84
2022/03/13 00:25:26;;;;;;;;;;;;;;;17.52;57.16;101481.84;5492151;23;19934;-84
2022/03/13 00:27:51;;;;;;;;;;;;;;;17.52;57.10;101476.63;4983083;28;19934;-85
2022/03/13 00:35:55;;;;;;;;;;;;;;;17.53;56.67;101483.56;5423947;23;19918;-85
2022/03/13 00:38:22;;;;;;;;;;;;;;;17.53;56.54;101476.66;4982861;28;19946;-84
2022/03/13 00:40:51;;;;;;;;;;;;;;;17.54;56.19;101480.09;4983118;28;19937;-85
2022/03/13 00:43:17;;;;;;;;;;;;;;;17.54;57.08;101478.38;4999643;28;19906;-85
2022/03/13 00:45:42;;;;;;;;;;;;;;;17.55;56.02;101481.81;4982814;28;19946;-85
2022/03/13 00:48:08;;;;;;;;;;;;;;;17.56;56.43;101475.78;4982835;28;19907;-85
2022/03/13 01:10:05;;;;;;;;;;;;;;;17.55;56.25;101458.41;5026207;23;19914;-84
2022/03/13 01:12:31;;;;;;;;;;;;;;;17.57;55.50;101459.28;5740950;23;19913;-84
2022/03/13 01:14:56;;;;;;;;;;;;;;;17.54;56.54;101447.13;4980436;28;19918;-84
2022/03/13 01:17:42;;;;;;;;;;;;;;;17.57;54.87;101448.88;4980033;28;19922;-85
2022/03/13 01:20:30;;;;;;;;;;;;;;;17.57;55.41;101461.88;4996045;28;19995;-84
2022/03/13 01:23:16;;;;;;;;;;;;;;;17.56;54.59;101450.63;4980025;28;19898;-85
2022/03/13 01:28:16;;;;;;;;;;;;;;;17.57;55.23;101454.06;4975924;29;19910;-84
2022/03/13 01:31:02;;;;;;;;;;;;;;;17.56;54.80;101447.16;4994834;28;19973;-85
2022/03/13 01:33:56;;;;;;;;;;;;;;;17.55;54.96;101450.59;4922791;29;19923;-85
2022/03/13 01:36:52;;;;;;;;;;;;;;;17.56;54.45;101448.00;4903809;29;19947;-85
2022/03/13 01:39:34;;;;;;;;;;;;;;;17.57;54.91;101435.84;4887782;29;19996;-85
2022/03/13 01:45:27;;;;;;;;;;;;;;;17.57;54.18;101443.66;4906295;29;20008;-86
2022/03/13 01:55:41;;;;;;;;;;;;;;;17.56;54.29;101424.59;5902885;23;19918;-85
2022/03/13 01:58:40;;;;;;;;;;;;;;;17.57;54.50;101433.25;4995890;28;20009;-85
2022/03/13 02:01:08;;;;;;;;;;;;;;;17.56;54.48;101418.53;4972994;28;19925;-81
2022/03/13 02:03:34;;;;;;;;;;;;;;;17.58;53.96;101419.38;4988418;28;19925;-81
2022/03/13 02:06:20;;;;;;;;;;;;;;;17.56;53.64;101411.56;4992042;28;19954;-81
2022/03/13 02:08:56;;;;;;;;;;;;;;;17.57;54.09;101415.03;4995079;28;19914;-81
2022/03/13 02:11:23;;;;;;;;;;;;;;;17.57;54.31;101407.22;4994534;28;19914;-81
2022/03/13 02:13:49;;;;;;;;;;;;;;;17.57;54.44;101399.44;4991833;28;19914;-81
2022/03/13 02:16:16;;;;;;;;;;;;;;;17.58;53.86;101403.78;4997121;28;19917;-81
2022/03/13 02:18:46;;;;;;;;;;;;;;;17.57;54.01;101407.22;4981839;28;19969;-81
2022/03/13 02:21:25;;;;;;;;;;;;;;;17.57;54.95;101402.03;4974343;28;19925;-81
2022/03/13 02:23:51;;;;;;;;;;;;;;;17.56;54.04;101402.91;4976000;28;19905;-82
2022/03/13 02:26:20;;;;;;;;;;;;;;;17.57;54.42;101402.03;4965976;28;19918;-81
2022/03/13 02:28:53;;;;;;;;;;;;;;;17.55;54.51;101396.84;4996349;28;19981;-80
2022/03/13 02:31:34;;;;;;;;;;;;;;;17.56;53.14;101382.94;4988377;28;19938;-81
2022/03/13 02:33:59;;;;;;;;;;;;;;;17.55;54.65;101377.72;4989128;28;19918;-81
2022/03/13 02:36:31;;;;;;;;;;;;;;;17.56;53.62;101382.94;4970850;28;19914;-81
2022/03/13 02:38:58;;;;;;;;;;;;;;;17.54;53.84;101376.00;4987807;28;19918;-81
2022/03/13 02:41:26;;;;;;;;;;;;;;;17.54;53.62;101374.28;4987006;28;20013;-81
2022/03/13 02:43:54;;;;;;;;;;;;;;;17.54;53.14;101379.47;4988392;28;19914;-81
2022/03/13 02:46:21;;;;;;;;;;;;;;;17.55;53.37;101378.63;4988191;28;19914;-81
2022/03/13 02:48:47;;;;;;;;;;;;;;;17.55;53.00;101375.13;4987549;28;19922;-81
2022/03/13 02:51:12;;;;;;;;;;;;;;;17.56;53.31;101369.06;4969472;28;19965;-80
2022/03/13 02:53:40;;;;;;;;;;;;;;;17.55;53.24;101362.13;4969277;28;19918;-81
2022/03/13 02:56:06;;;;;;;;;;;;;;;17.54;53.81;101363.00;4986575;28;19926;-80
2022/03/13 02:58:32;;;;;;;;;;;;;;;17.53;53.23;101362.16;4985742;28;19926;-81
2022/03/13 03:00:57;;;;;;;;;;;;;;;17.53;53.15;101362.16;4986027;28;20364;-81
2022/03/13 03:03:23;;;;;;;;;;;;;;;17.53;53.49;101364.75;4986419;28;19920;-81
2022/03/13 03:05:49;;;;;;;;;;;;;;;17.53;53.31;101363.84;4975399;28;19922;-81
2022/03/13 03:08:15;;;;;;;;;;;;;;;17.51;53.42;101363.00;4977165;28;20272;-81
2022/03/13 03:10:40;;;;;;;;;;;;;;;17.50;53.13;101362.13;4972955;28;19918;-80
2022/03/13 03:13:10;;;;;;;;;;;;;;;17.50;53.48;101362.13;4971092;28;19921;-80
2022/03/13 03:15:36;;;;;;;;;;;;;;;17.51;53.01;101349.97;4986210;28;19946;-80
2022/03/13 03:18:02;;;;;;;;;;;;;;;17.51;52.88;101355.19;4969266;28;19918;-80
2022/03/13 03:20:28;;;;;;;;;;;;;;;17.51;53.00;101344.78;4969586;28;20288;-80
2022/03/13 03:22:54;;;;;;;;;;;;;;;17.48;53.07;101348.25;4985905;28;19925;-80
2022/03/13 03:25:21;;;;;;;;;;;;;;;17.49;53.03;101357.81;4969293;28;19969;-80
2022/03/13 03:27:47;;;;;;;;;;;;;;;17.50;52.71;101359.53;4968492;28;19914;-80
2022/03/13 03:30:13;;;;;;;;;;;;;;;17.50;52.73;101364.72;4985843;28;19924;-80
2022/03/13 03:32:39;;;;;;;;;;;;;;;17.48;52.65;101356.06;4986364;28;19914;-80
2022/03/13 03:35:06;;;;;;;;;;;;;;;17.50;52.61;101361.28;4969614;28;19922;-81
2022/03/13 03:37:32;;;;;;;;;;;;;;;17.49;52.56;101365.63;4969292;28;19918;-81
2022/03/13 03:39:58;;;;;;;;;;;;;;;17.50;52.71;101371.69;4986724;28;20440;-81
2022/03/13 03:42:25;;;;;;;;;;;;;;;17.50;52.51;101363.88;4969884;28;19925;-81
2022/03/13 03:44:51;;;;;;;;;;;;;;;17.48;52.34;101364.75;4953558;28;19918;-81
2022/03/13 03:47:17;;;;;;;;;;;;;;;17.49;52.59;101368.22;4968560;28;20396;-81
2022/03/13 03:49:42;;;;;;;;;;;;;;;17.48;52.56;101367.34;4985728;28;19961;-81
2022/03/13 03:52:09;;;;;;;;;;;;;;;17.48;52.74;101369.97;4952878;28;20439;-81
2022/03/13 03:54:35;;;;;;;;;;;;;;;17.48;52.55;101371.66;4969575;28;19918;-81
2022/03/13 03:57:00;;;;;;;;;;;;;;;17.50;52.24;101371.69;4988775;28;19922;-81
2022/03/13 03:59:27;;;;;;;;;;;;;;;17.51;52.08;101371.69;4988656;28;19929;-81
2022/03/13 04:01:53;;;;;;;;;;;;;;;17.51;52.07;101376.00;4987441;28;20395;-81
2022/03/13 04:04:20;;;;;;;;;;;;;;;17.49;52.36;101370.81;4986655;28;19938;-81
2022/03/13 04:06:45;;;;;;;;;;;;;;;17.51;52.17;101373.41;4987567;28;19921;-81
2022/03/13 04:09:12;;;;;;;;;;;;;;;17.52;52.18;101376.00;4953751;28;19982;-81
2022/03/13 04:11:37;;;;;;;;;;;;;;;17.51;52.06;101379.50;4969543;28;19922;-81
2022/03/13 04:14:03;;;;;;;;;;;;;;;17.51;52.08;101374.28;4986879;28;19919;-81
2022/03/13 04:16:36;;;;;;;;;;;;;;;17.52;51.83;101377.75;4986696;28;20396;-81
2022/03/13 04:19:01;;;;;;;;;;;;;;;17.51;51.93;101379.50;4985146;28;19950;-81
2022/03/13 04:21:26;;;;;;;;;;;;;;;17.50;52.10;101374.28;4969000;28;19925;-81
2022/03/13 04:23:53;;;;;;;;;;;;;;;17.50;52.07;101375.13;4984351;28;19918;-81
2022/03/13 04:26:18;;;;;;;;;;;;;;;17.53;51.77;101374.25;4966620;28;19914;-80
2022/03/13 04:28:45;;;;;;;;;;;;;;;17.52;51.70;101373.41;4986047;28;20292;-81
2022/03/13 04:31:12;;;;;;;;;;;;;;;17.53;51.63;101374.25;4968525;28;19958;-81
2022/03/13 04:33:37;;;;;;;;;;;;;;;17.54;51.66;101374.28;4985345;28;19918;-80
2022/03/13 04:36:11;;;;;;;;;;;;;;;17.53;51.68;101371.66;4966816;28;20405;-80
2022/03/13 04:38:44;;;;;;;;;;;;;;;17.53;51.41;101372.56;4984996;28;19918;-80
2022/03/13 04:41:09;;;;;;;;;;;;;;;17.54;51.48;101370.81;4985439;28;20300;-80
2022/03/13 04:43:37;;;;;;;;;;;;;;;17.54;51.40;101360.41;4985124;28;19914;-80
2022/03/13 04:46:03;;;;;;;;;;;;;;;17.55;51.65;101364.72;4968862;28;19914;-81
2022/03/13 04:48:32;;;;;;;;;;;;;;;17.56;51.51;101372.53;4988453;28;19914;-82
2022/03/13 04:51:02;;;;;;;;;;;;;;;17.56;51.36;101376.88;4979071;28;19964;-81
2022/03/13 04:53:34;;;;;;;;;;;;;;;17.54;51.44;101361.25;4952821;28;19925;-81
2022/03/13 04:56:00;;;;;;;;;;;;;;;17.54;51.49;101363.88;4967682;28;19922;-81
2022/03/13 04:58:25;;;;;;;;;;;;;;;17.55;51.16;101359.53;4968439;28;19919;-81
2022/03/13 05:00:51;;;;;;;;;;;;;;;17.55;51.33;101359.53;4960718;28;19918;-81
2022/03/13 05:03:18;;;;;;;;;;;;;;;17.56;51.13;101366.47;4988622;28;20005;-81
2022/03/13 05:05:43;;;;;;;;;;;;;;;17.55;51.18;101364.72;4971597;28;19914;-81
2022/03/13 05:08:13;;;;;;;;;;;;;;;17.56;51.29;101366.47;4971733;28;20020;-80
2022/03/13 05:10:40;;;;;;;;;;;;;;;17.55;51.24;101356.91;4988033;28;19914;-81
2022/03/13 05:13:06;;;;;;;;;;;;;;;17.54;51.74;101353.47;4968404;28;20269;-81
2022/03/13 05:15:32;;;;;;;;;;;;;;;17.56;51.15;101361.28;4987224;28;19918;-80
2022/03/13 05:17:57;;;;;;;;;;;;;;;17.54;51.38;101357.81;4986690;28;19918;-81
2022/03/13 05:20:23;;;;;;;;;;;;;;;17.54;51.12;101352.59;4970998;28;19997;-80
2022/03/13 05:22:50;;;;;;;;;;;;;;;17.55;51.19;101359.53;4954269;28;19918;-81
2022/03/13 05:25:15;;;;;;;;;;;;;;;17.54;51.72;101357.81;4956096;28;19968;-81
2022/03/13 05:27:49;;;;;;;;;;;;;;;17.54;51.45;101358.66;4979993;28;19922;-82
2022/03/13 05:30:16;;;;;;;;;;;;;;;17.55;51.50;101363.00;4976321;28;19910;-81
2022/03/13 05:32:41;;;;;;;;;;;;;;;17.54;51.77;101361.25;4990987;28;19914;-81
2022/03/13 05:35:10;;;;;;;;;;;;;;;17.55;51.13;101367.31;4990129;28;19922;-81
2022/03/13 05:37:38;;;;;;;;;;;;;;;17.54;51.16;101363.88;4990609;28;19921;-81
2022/03/13 05:40:07;;;;;;;;;;;;;;;17.53;51.66;101362.16;4990030;28;19918;-81
2022/03/13 05:42:33;;;;;;;;;;;;;;;17.54;51.03;101370.81;4972342;28;19981;-81
2022/03/13 05:44:59;;;;;;;;;;;;;;;17.54;51.48;101369.06;4991300;28;19925;-81
2022/03/13 05:47:25;;;;;;;;;;;;;;;17.54;51.18;101374.28;4989511;28;19914;-81
2022/03/13 05:49:52;;;;;;;;;;;;;;;17.54;51.30;101371.66;4989956;28;19953;-81
2022/03/13 05:52:20;;;;;;;;;;;;;;;17.54;51.17;101374.28;4973166;28;19914;-81
2022/03/13 05:54:51;;;;;;;;;;;;;;;17.54;51.01;101373.41;4990104;28;19964;-81
2022/03/13 05:57:27;;;;;;;;;;;;;;;17.55;51.18;101369.94;4973929;28;19922;-82
2022/03/13 05:59:52;;;;;;;;;;;;;;;17.54;51.82;101369.06;4972190;28;19926;-81
2022/03/13 06:02:35;;;;;;;;;;;;;;;17.54;51.87;101376.88;4975860;28;20381;-82
2022/03/13 06:05:11;;;;;;;;;;;;;;;17.54;50.95;101374.28;4992277;28;19921;-81
2022/03/13 06:07:37;;;;;;;;;;;;;;;17.55;51.13;101367.31;4991277;28;19914;-81
2022/03/13 06:10:04;;;;;;;;;;;;;;;17.57;52.10;101373.41;4990377;28;19914;-81
2022/03/13 06:12:30;;;;;;;;;;;;;;;17.57;51.47;101365.59;4989760;28;19918;-80
2022/03/13 06:14:56;;;;;;;;;;;;;;;17.57;51.23;101363.88;4974098;28;19954;-81
2022/03/13 06:17:22;;;;;;;;;;;;;;;17.59;51.53;101369.06;4975212;28;19914;-82
2022/03/13 06:19:49;;;;;;;;;;;;;;;17.59;50.94;101363.84;4999645;28;19922;-81
2022/03/13 06:22:18;;;;;;;;;;;;;;;17.58;50.80;101376.00;4999759;28;19947;-82
2022/03/13 06:24:44;;;;;;;;;;;;;;;17.60;51.71;101371.66;4999434;28;19898;-82
2022/03/13 06:30:19;;;;;;;;;;;;;;;17.61;51.30;101375.13;4994621;28;19930;-82
2022/03/13 06:32:47;;;;;;;;;;;;;;;17.61;51.09;101372.53;4997929;28;19937;-81
2022/03/13 06:35:13;;;;;;;;;;;;;;;17.60;51.17;101374.28;4981490;28;19914;-82
2022/03/13 06:37:43;;;;;;;;;;;;;;;17.61;51.11;101373.38;4996507;28;19918;-81
2022/03/13 06:40:28;;;;;;;;;;;;;;;17.60;50.84;101371.66;4976175;28;19942;-81
2022/03/13 06:42:54;;;;;;;;;;;;;;;17.61;50.84;101372.53;4994484;28;19945;-81
2022/03/13 06:45:24;;;;;;;;;;;;;;;17.61;51.54;101373.38;4974784;28;19914;-81
2022/03/13 06:47:52;;;;;;;;;;;;;;;17.63;50.94;101374.25;4990577;28;20428;-81
2022/03/13 06:50:23;;;;;;;;;;;;;;;17.66;51.15;101370.81;4974427;28;19925;-81
2022/03/13 06:52:49;;;;;;;;;;;;;;;17.68;50.99;101367.34;4993578;28;19921;-81
2022/03/13 06:55:32;;;;;;;;;;;;;;;17.70;51.58;101372.50;4991566;28;19950;-82
2022/03/13 06:57:58;;;;;;;;;;;;;;;17.75;50.64;101369.94;4973471;28;19945;-81
2022/03/13 07:00:24;;;;;;;;;;;;;;;17.78;50.77;101375.97;4973029;28;20331;-81
2022/03/13 07:02:50;;;;;;;;;;;;;;;17.80;50.37;101374.25;4993895;28;19924;-82
2022/03/13 07:05:15;;;;;;;;;;;;;;;17.81;50.20;101381.19;4977316;28;19918;-81
2022/03/13 07:07:54;;;;;;;;;;;;;;;17.80;50.19;101381.19;4975813;28;19986;-81
2022/03/13 07:10:56;;;;;;;;;;;;;;;17.82;50.18;101382.94;4990829;28;19914;-81
2022/03/13 07:13:22;;;;;;;;;;;;;;;17.85;50.45;101377.72;4949207;29;19926;-80
2022/03/13 07:15:55;;;;;;;;;;;;;;;17.89;50.08;101382.06;4932003;29;19915;-81
2022/03/13 07:18:20;;;;;;;;;;;;;;;17.92;50.41;101385.53;4932510;29;19966;-80
2022/03/13 07:20:46;;;;;;;;;;;;;;;17.92;49.98;101385.53;4945576;29;19914;-78
2022/03/13 07:23:11;;;;;;;;;;;;;;;17.94;50.12;101394.19;4946738;29;20030;-80
2022/03/13 07:25:36;;;;;;;;;;;;;;;17.92;50.41;101393.34;4933363;29;20018;-80
2022/03/13 07:28:02;;;;;;;;;;;;;;;17.91;50.18;101386.41;4929437;29;20010;-79
2022/03/13 07:30:27;;;;;;;;;;;;;;;17.91;49.99;101392.47;4944403;29;19915;-79
2022/03/13 07:32:54;;;;;;;;;;;;;;;17.95;50.12;101388.16;4927063;29;20124;-79
2022/03/13 07:35:19;;;;;;;;;;;;;;;17.95;49.92;101390.75;4927964;29;20013;-79
2022/03/13 07:37:45;;;;;;;;;;;;;;;17.93;50.00;101390.75;4910989;29;19958;-80
2022/03/13 07:40:11;;;;;;;;;;;;;;;17.92;50.17;101386.41;4926350;29;19919;-80
2022/03/13 07:42:40;;;;;;;;;;;;;;;17.91;50.47;101396.81;4941449;29;19982;-80
2022/03/13 07:45:13;;;;;;;;;;;;;;;17.92;49.99;101393.34;4945843;29;19914;-82
2022/03/13 07:47:38;;;;;;;;;;;;;;;17.92;49.90;101389.03;4943435;29;19938;-80
2022/03/13 07:50:22;;;;;;;;;;;;;;;17.94;49.74;101395.06;4931204;29;19914;-83
2022/03/13 07:53:04;;;;;;;;;;;;;;;17.99;49.73;101390.72;4957612;28;19915;-83
2022/03/13 07:56:03;;;;;;;;;;;;;;;18.03;49.55;101386.38;4932133;29;19919;-83
2022/03/13 07:58:50;;;;;;;;;;;;;;;18.08;49.43;101382.03;4991042;23;19953;31
2022/03/13 08:01:15;;;;;;;;;;;;;;;18.09;49.21;101386.34;4935475;29;19910;-80
2022/03/13 08:03:44;;;;;;;;;;;;;;;18.07;49.46;101383.78;4932416;29;19923;-81
2022/03/13 08:06:12;;;;;;;;;;;;;;;18.07;49.50;101385.50;4935743;29;20263;-82
2022/03/13 08:08:44;;;;;;;;;;;;;;;18.10;49.41;101382.88;4948788;29;19943;-82
2022/03/13 08:14:45;;;;;;;;;;;;;;;18.13;49.19;101382.88;4916591;29;19926;-82
2022/03/13 08:26:43;;;;;;;;;;;;;;;18.14;49.03;101368.09;4916421;29;19952;-83
2022/03/13 08:29:29;;;;;;;;;;;;;;;18.22;48.84;101368.94;4899069;29;19927;-83
2022/03/13 08:32:20;;;;;;;;;;;;;;;18.32;48.60;101365.44;4900046;29;19967;-82
2022/03/13 08:35:24;;;;;;;;;;;;;;;18.33;48.65;101355.88;4887776;29;19912;-89
2022/03/13 08:38:16;;;;;;;;;;;;;;;18.44;48.40;101364.50;5016144;23;19951;-81
2022/03/13 08:40:41;;;;;;;;;;;;;;;18.37;48.55;101355.00;4932629;29;19923;-80
2022/03/13 08:43:07;;;;;;;;;;;;;;;18.38;48.64;101368.03;4932871;29;19935;-80
2022/03/13 08:45:35;;;;;;;;;;;;;;;18.48;48.41;101366.22;4934090;29;19907;-81
2022/03/13 08:48:00;;;;;;;;;;;;;;;18.44;48.65;101369.72;4923497;29;20409;-79
2022/03/13 08:50:26;;;;;;;;;;;;;;;18.38;48.84;101365.41;4925702;29;19951;-80
2022/03/13 08:52:51;;;;;;;;;;;;;;;18.42;48.46;101376.69;4924668;29;20009;-80
2022/03/13 08:55:18;;;;;;;;;;;;;;;18.41;48.52;101359.31;4910208;29;19929;-79
2022/03/13 08:57:44;;;;;;;;;;;;;;;18.36;48.46;101354.13;4916489;29;19930;-79
2022/03/13 09:00:11;;;;;;;;;;;;;;;18.35;48.09;101361.94;4919819;29;19920;-80
2022/03/13 09:02:36;;;;;;;;;;;;;;;18.34;48.35;101345.47;4908181;29;19969;-80
2022/03/13 09:05:02;;;;;;;;;;;;;;;18.38;48.68;101356.72;4919362;29;19919;-79
2022/03/13 09:07:27;;;;;;;;;;;;;;;18.41;48.52;101348.91;4899632;29;20017;-80
2022/03/13 09:09:52;;;;;;;;;;;;;;;18.56;48.09;101337.53;4907149;29;19923;-79
2022/03/13 09:12:18;;;;;;;;;;;;;;;18.68;47.93;101343.53;4921570;29;19986;-80
2022/03/13 09:14:43;;;;;;;;;;;;;;;18.68;48.07;101343.53;4905851;29;19970;-80
2022/03/13 09:17:08;;;;;;;;;;;;;;;18.68;48.44;101340.94;4922345;29;19965;-80
2022/03/13 09:19:34;;;;;;;;;;;;;;;18.65;48.32;101335.72;4904396;29;20391;-79
2022/03/13 09:21:59;;;;;;;;;;;;;;;18.63;48.70;101340.09;4905870;29;19919;-79
2022/03/13 09:24:24;;;;;;;;;;;;;;;18.63;48.70;101334.88;4903703;29;19927;-79
2022/03/13 09:26:49;;;;;;;;;;;;;;;18.62;48.94;101335.75;4920738;29;19954;-81
2022/03/13 09:29:15;;;;;;;;;;;;;;;18.62;48.79;101338.38;4904861;29;19951;-80
2022/03/13 09:31:40;;;;;;;;;;;;;;;18.61;48.47;101336.63;4898542;29;19941;-80
2022/03/13 09:34:05;;;;;;;;;;;;;;;18.59;49.08;101334.91;4921816;29;19939;-80
2022/03/13 09:39:16;;;;;;;;;;;;;;;18.62;48.05;101343.56;4924657;29;19930;-80
2022/03/13 09:41:42;;;;;;;;;;;;;;;18.62;47.97;101342.72;4910031;29;19927;-80
2022/03/13 09:44:07;;;;;;;;;;;;;;;18.60;47.93;101345.31;4920176;29;19946;-80
2022/03/13 09:46:35;;;;;;;;;;;;;;;18.60;48.14;101347.06;4931942;29;19919;-79
2022/03/13 09:49:00;;;;;;;;;;;;;;;18.59;47.84;101346.19;4913532;29;19925;-79
2022/03/13 09:51:26;;;;;;;;;;;;;;;18.62;47.67;101342.72;4899784;29;19923;-80
2022/03/13 09:53:51;;;;;;;;;;;;;;;18.61;47.75;101339.22;4895267;29;19965;-80
2022/03/13 09:56:17;;;;;;;;;;;;;;;18.60;47.58;101345.31;4923148;29;19919;-79
2022/03/13 09:58:44;;;;;;;;;;;;;;;18.61;47.83;101346.19;4909442;29;19934;-79
2022/03/13 10:01:09;;;;;;;;;;;;;;;18.60;47.86;101352.28;4907930;29;19955;-79
2022/03/13 10:03:34;;;;;;;;;;;;;;;18.58;47.74;101352.28;4897316;29;19930;-80
2022/03/13 10:06:00;;;;;;;;;;;;;;;18.58;47.76;101346.22;4924118;29;19919;-80
2022/03/13 10:08:26;;;;;;;;;;;;;;;18.57;47.67;101350.53;4911106;29;19920;-80
2022/03/13 10:10:52;;;;;;;;;;;;;;;18.58;47.62;101348.81;4920383;29;19923;-80
2022/03/13 10:13:32;;;;;;;;;;;;;;;18.60;47.36;101347.94;4920490;29;19935;-79
2022/03/13 10:15:58;;;;;;;;;;;;;;;18.59;47.58;101343.56;4929148;29;20010;-79
2022/03/13 10:18:23;;;;;;;;;;;;;;;18.59;47.48;101345.31;4917034;29;19947;-78
2022/03/13 10:20:49;;;;;;;;;;;;;;;18.59;47.60;101346.19;4914135;29;20386;-80
2022/03/13 10:23:19;;;;;;;;;;;;;;;18.64;47.73;101348.75;4922811;29;19926;-80
2022/03/13 10:25:51;;;;;;;;;;;;;;;18.63;47.89;101342.69;4916036;29;19974;-82
2022/03/13 10:28:36;;;;;;;;;;;;;;;18.67;47.65;101348.75;4942281;29;19907;-80
2022/03/13 10:31:11;;;;;;;;;;;;;;;18.63;47.83;101342.69;5144044;23;19941;-81
2022/03/13 10:33:43;;;;;;;;;;;;;;;18.64;47.82;101341.84;4970218;28;19918;-79
2022/03/13 10:36:44;;;;;;;;;;;;;;;18.62;47.76;101342.72;4982298;28;19902;-82
2022/03/13 10:39:16;;;;;;;;;;;;;;;18.59;47.87;101340.13;4998910;28;19918;-81
2022/03/13 10:41:44;;;;;;;;;;;;;;;18.59;47.55;101340.97;4994685;28;19918;-81
2022/03/13 10:44:21;;;;;;;;;;;;;;;18.59;47.83;101340.13;4990249;28;19914;-81
2022/03/13 10:46:57;;;;;;;;;;;;;;;18.58;47.55;101341.00;4971594;28;19918;-82
2022/03/13 10:49:32;;;;;;;;;;;;;;;18.58;47.66;101334.03;4975888;28;20379;-81
2022/03/13 10:51:59;;;;;;;;;;;;;;;18.58;47.43;101334.03;4998582;28;19925;-81
2022/03/13 10:54:34;;;;;;;;;;;;;;;18.59;47.39;101329.69;4981366;28;19949;-81
2022/03/13 10:57:19;;;;;;;;;;;;;;;18.58;47.56;101323.63;4994493;28;19946;-81
2022/03/13 10:59:45;;;;;;;;;;;;;;;18.58;47.39;101334.03;4955303;28;19928;-80
2022/03/13 11:02:14;;;;;;;;;;;;;;;18.59;47.31;101334.91;4967727;28;20337;-80
2022/03/13 11:04:46;;;;;;;;;;;;;;;18.59;46.83;101329.69;4968375;28;19914;-80
2022/03/13 11:07:12;;;;;;;;;;;;;;;18.58;47.00;101334.03;4984619;28;20307;-80
2022/03/13 11:09:37;;;;;;;;;;;;;;;18.58;47.21;101321.00;4949636;28;19960;-79
2022/03/13 11:12:09;;;;;;;;;;;;;;;18.59;46.99;101322.72;4946974;28;19918;-79
2022/03/13 11:14:34;;;;;;;;;;;;;;;18.59;47.16;101320.13;4965777;28;20009;-79
2022/03/13 11:17:01;;;;;;;;;;;;;;;18.59;46.90;101329.69;4963682;28;19914;-79
2022/03/13 11:19:28;;;;;;;;;;;;;;;18.64;46.35;101325.28;4949736;28;20308;-79
2022/03/13 11:21:53;;;;;;;;;;;;;;;18.64;46.58;101314.88;4949631;28;19958;-80
2022/03/13 11:24:19;;;;;;;;;;;;;;;18.63;46.56;101313.16;5098833;23;19927;-79
2022/03/13 11:26:45;;;;;;;;;;;;;;;18.61;46.39;101305.34;4944955;29;19927;-78
2022/03/13 11:29:10;;;;;;;;;;;;;;;18.61;46.39;101299.25;4960612;29;19925;-79
2022/03/13 11:31:37;;;;;;;;;;;;;;;18.59;46.63;101296.66;4945413;29;19919;-78
2022/03/13 11:34:12;;;;;;;;;;;;;;;18.60;46.37;101297.53;4960835;28;20400;-78
2022/03/13 11:36:37;;;;;;;;;;;;;;;18.61;46.37;101294.91;4961245;28;19934;-78
2022/03/13 11:39:04;;;;;;;;;;;;;;;18.62;46.35;101293.19;4961059;29;20362;-78
2022/03/13 11:41:34;;;;;;;;;;;;;;;18.65;46.05;101293.16;4959838;29;20380;-78
2022/03/13 11:44:28;;;;;;;;;;;;;;;18.65;46.24;101288.81;4961313;29;19978;-79
2022/03/13 11:46:55;;;;;;;;;;;;;;;18.66;45.97;101282.72;4961309;29;19938;-81
2022/03/13 11:49:26;;;;;;;;;;;;;;;18.66;46.03;101287.06;4963218;29;19921;-79
2022/03/13 11:52:10;;;;;;;;;;;;;;;18.67;45.96;101279.22;4965476;29;19978;-80
2022/03/13 11:54:45;;;;;;;;;;;;;;;18.64;46.30;101284.47;4969804;28;19906;-81
2022/03/13 11:57:13;;;;;;;;;;;;;;;18.66;46.08;101274.03;4970549;28;20330;-80
2022/03/13 11:59:39;;;;;;;;;;;;;;;18.66;46.09;101263.59;5157263;23;19946;-81
2022/03/13 12:02:09;;;;;;;;;;;;;;;18.66;46.11;101267.09;4951465;28;19912;-82
2022/03/13 12:04:34;;;;;;;;;;;;;;;18.67;46.42;101258.38;4929030;29;19930;-81
2022/03/13 12:07:01;;;;;;;;;;;;;;;18.70;46.45;101260.09;4928728;29;19920;-81
2022/03/13 12:12:29;;;;;;;;;;;;;;;18.75;46.52;101266.16;5297561;23;19949;-79
2022/03/13 12:15:02;;;;;;;;;;;;;;;18.76;46.67;101262.66;4948820;28;19925;-79
2022/03/13 12:17:29;;;;;;;;;;;;;;;18.77;46.74;101267.00;4965079;28;19914;-79
2022/03/13 12:19:56;;;;;;;;;;;;;;;18.76;46.63;101253.97;4965030;28;19922;-80
2022/03/13 12:22:24;;;;;;;;;;;;;;;18.77;46.80;101248.75;4963361;28;19921;-79
2022/03/13 12:24:51;;;;;;;;;;;;;;;18.77;46.73;101259.19;4962992;28;19914;-80
2022/03/13 12:27:18;;;;;;;;;;;;;;;18.76;46.72;101257.44;4983138;28;20348;-80
2022/03/13 12:29:47;;;;;;;;;;;;;;;18.76;46.87;101267.00;4963356;28;19946;-80
2022/03/13 12:32:12;;;;;;;;;;;;;;;18.77;46.68;101268.72;4980110;28;20088;-80
2022/03/13 12:34:41;;;;;;;;;;;;;;;18.74;46.76;101264.41;4949384;28;19945;-80
2022/03/13 12:37:08;;;;;;;;;;;;;;;18.74;46.75;101256.59;4965564;28;19918;-81
2022/03/13 12:39:34;;;;;;;;;;;;;;;18.74;46.85;101250.50;4964829;28;19918;-80
2022/03/13 12:42:00;;;;;;;;;;;;;;;18.75;46.61;101233.97;4979527;28;20423;-81
2022/03/13 12:44:27;;;;;;;;;;;;;;;18.76;46.76;101246.16;4967211;28;19914;-81
2022/03/13 12:46:53;;;;;;;;;;;;;;;18.77;46.69;101243.53;4966098;28;19941;-81
2022/03/13 12:49:26;;;;;;;;;;;;;;;18.77;46.66;101243.53;4968955;28;20278;-82
2022/03/13 12:51:51;;;;;;;;;;;;;;;18.77;46.71;101240.94;4962739;28;19914;-80
2022/03/13 12:54:20;;;;;;;;;;;;;;;18.78;46.78;101236.63;4963025;28;19921;-81
2022/03/13 12:56:49;;;;;;;;;;;;;;;18.79;46.83;101240.94;4962327;28;19914;-80
2022/03/13 12:59:22;;;;;;;;;;;;;;;18.80;46.56;101229.66;4962304;28;19922;-80
2022/03/13 13:02:00;;;;;;;;;;;;;;;18.81;46.60;101232.22;4963582;28;19918;-80
2022/03/13 13:04:25;;;;;;;;;;;;;;;18.84;46.46;101237.44;4977762;28;19921;-80
2022/03/13 13:06:51;;;;;;;;;;;;;;;18.83;46.45;101227.84;4945950;28;20300;-80
2022/03/13 13:09:26;;;;;;;;;;;;;;;18.81;46.26;101226.16;4963329;28;19918;-82
2022/03/13 13:22:14;;;;;;;;;;;;;;;18.82;46.11;101238.31;5554023;23;19926;-81
2022/03/13 13:27:34;;;;;;;;;;;;;;;18.83;45.72;101240.91;5054068;23;19933;-84
2022/03/13 13:30:35;;;;;;;;;;;;;;;18.83;45.33;101221.78;4975605;28;20018;-83
2022/03/13 13:33:01;;;;;;;;;;;;;;;18.83;45.28;101227.84;4926630;29;19915;-83
2022/03/13 13:35:27;;;;;;;;;;;;;;;18.84;45.23;101231.34;4972236;28;19922;-83
2022/03/13 13:37:56;;;;;;;;;;;;;;;18.83;45.20;101240.91;5001227;28;19914;-81
2022/03/13 13:40:23;;;;;;;;;;;;;;;18.85;45.16;101236.53;4984350;28;19929;-83
2022/03/13 13:42:54;;;;;;;;;;;;;;;18.85;45.01;101227.84;4962839;28;19982;-83
2022/03/13 13:45:29;;;;;;;;;;;;;;;18.86;45.12;101229.59;4983924;28;19929;-82
2022/03/13 13:48:14;;;;;;;;;;;;;;;18.87;45.00;101246.97;4984778;28;19918;-82
2022/03/13 13:50:40;;;;;;;;;;;;;;;18.87;44.81;101232.16;5001112;28;19902;-81
2022/03/13 13:53:08;;;;;;;;;;;;;;;18.86;44.71;101235.66;5001131;28;19921;-82
2022/03/13 13:55:34;;;;;;;;;;;;;;;18.87;44.66;101240.00;4969009;28;19903;-83
2022/03/13 13:58:13;;;;;;;;;;;;;;;18.88;44.69;101241.75;4984640;28;19913;-83
2022/03/13 14:00:39;;;;;;;;;;;;;;;18.88;44.56;101241.75;4967971;28;19925;-83
2022/03/13 14:03:04;;;;;;;;;;;;;;;18.90;44.48;101233.88;4983885;28;19917;-82
2022/03/13 14:05:31;;;;;;;;;;;;;;;18.90;44.46;101224.34;4983692;28;19898;-83
2022/03/13 14:07:57;;;;;;;;;;;;;;;18.90;44.26;101226.94;4999771;28;19914;-82
2022/03/13 14:10:22;;;;;;;;;;;;;;;18.93;44.22;101233.03;4967647;28;19945;-82
2022/03/13 14:12:48;;;;;;;;;;;;;;;18.95;44.16;101236.47;4985004;28;19913;-85
2022/03/13 14:25:35;;;;;;;;;;;;;;;18.95;43.82;101241.69;5382821;23;19910;-82